createdAt,value
2019-04-28T00:01:53.721Z,99675.53
2019-04-28T00:04:27.095Z,99679.38
2019-04-28T00:07:01.872Z,99676.70
2019-04-28T00:09:35.461Z,99673.44
2019-04-28T00:12:09.146Z,99684.12
2019-04-28T00:14:42.208Z,99681.42
2019-04-28T00:17:15.727Z,99686.63
2019-04-28T00:19:51.360Z,99686.41
2019-04-28T00:22:37.286Z,99694.98
2019-04-28T00:25:36.070Z,99690.58
2019-04-28T00:28:09.463Z,99690.73
2019-04-28T00:30:42.963Z,99690.16
2019-04-28T00:33:16.399Z,99693.44
2019-04-28T00:35:49.233Z,99694.55
2019-04-28T00:38:23.473Z,99685.19
2019-04-28T00:40:59.573Z,99687.91
2019-04-28T00:43:33.414Z,99687.70
2019-04-28T00:46:10.802Z,99691.00
2019-04-28T00:48:44.742Z,99689.41
2019-04-28T00:51:17.896Z,99690.31
2019-04-28T00:53:51.199Z,99687.06
2019-04-28T00:56:24.213Z,99689.21
2019-04-28T00:58:58.322Z,99690.47
2019-04-28T01:01:38.056Z,99686.06
2019-04-28T01:04:11.871Z,99686.49
2019-04-28T01:06:45.813Z,99688.20
2019-04-28T01:09:22.053Z,99681.45
2019-04-28T01:11:55.449Z,99686.75
2019-04-28T01:14:28.422Z,99690.59
2019-04-28T01:17:09.798Z,99687.89
2019-04-28T01:19:46.359Z,99691.94
2019-04-28T01:22:20.131Z,99696.44
2019-04-28T01:24:53.807Z,99697.80
2019-04-28T01:27:50.527Z,99700.95
2019-04-28T01:30:45.864Z,99692.63
2019-04-28T01:33:41.699Z,99690.14
2019-04-28T01:36:14.823Z,99698.14
2019-04-28T01:38:49.941Z,99695.30
2019-04-28T01:41:23.207Z,99695.09
2019-04-28T01:43:56.180Z,99693.15
2019-04-28T01:46:32.254Z,99696.75
2019-04-28T01:49:05.651Z,99700.91
2019-04-28T01:51:38.937Z,99703.25
2019-04-28T01:54:11.728Z,99694.15
2019-04-28T01:56:45.078Z,99698.89
2019-04-28T01:59:18.027Z,99704.40
2019-04-28T02:01:50.999Z,99701.91
2019-04-28T02:04:24.156Z,99707.57
2019-04-28T02:06:59.812Z,99712.17
2019-04-28T02:09:33.545Z,99716.67
2019-04-28T02:12:06.518Z,99716.88
2019-04-28T02:14:40.529Z,99722.94
2019-04-28T02:17:14.528Z,99720.68
2019-04-28T02:19:48.395Z,99723.17
2019-04-28T02:22:35.484Z,99724.73
2019-04-28T02:25:09.941Z,99724.63
2019-04-28T02:27:43.491Z,99720.43
2019-04-28T02:30:17.489Z,99730.44
2019-04-28T02:32:51.911Z,99729.42
2019-04-28T02:35:25.946Z,99736.83
2019-04-28T02:38:00.168Z,99739.53
2019-04-28T02:40:33.771Z,99741.31
2019-04-28T02:43:06.850Z,99739.31
2019-04-28T02:45:41.359Z,99736.47
2019-04-28T02:48:21.204Z,99739.73
2019-04-28T02:51:02.832Z,99743.92
2019-04-28T02:53:40.893Z,99742.20
2019-04-28T02:56:14.647Z,99746.47
2019-04-28T02:58:47.656Z,99749.41
2019-04-28T03:01:26.105Z,99746.83
2019-04-28T03:03:55.742Z,99749.00
2019-04-28T03:06:30.661Z,99756.76
2019-04-28T03:09:04.464Z,99753.19
2019-04-28T03:11:38.285Z,99751.49
2019-04-28T03:14:11.580Z,99753.59
2019-04-28T03:16:44.970Z,99753.83
2019-04-28T03:19:17.845Z,99753.05
2019-04-28T03:21:51.141Z,99749.14
2019-04-28T03:24:24.297Z,99751.94
2019-04-28T03:27:16.079Z,99746.53
2019-04-28T03:29:57.052Z,99747.55
2019-04-28T03:32:45.251Z,99739.34
2019-04-28T03:35:13.041Z,99742.94
2019-04-28T03:37:43.606Z,99744.05
2019-04-28T03:40:16.988Z,99747.89
2019-04-28T03:42:51.349Z,99749.36
2019-04-28T03:45:30.671Z,99746.44
2019-04-28T03:48:04.061Z,99751.39
2019-04-28T03:50:37.415Z,99751.84
2019-04-28T03:53:11.866Z,99751.50
2019-04-28T03:55:47.491Z,99755.45
2019-04-28T03:58:23.793Z,99749.01
2019-04-28T04:00:56.848Z,99751.71
2019-04-28T04:03:30.560Z,99750.36
2019-04-28T04:06:04.021Z,99758.72
2019-04-28T04:08:40.549Z,99756.71
2019-04-28T04:11:38.193Z,99751.86
2019-04-28T04:14:36.817Z,99750.75
2019-04-28T04:17:21.262Z,99753.32
2019-04-28T04:19:54.714Z,99753.56
2019-04-28T04:22:27.837Z,99754.01
2019-04-28T04:25:01.346Z,99755.67
2019-04-28T04:27:35.364Z,99752.51
2019-04-28T04:30:10.852Z,99758.45
2019-04-28T04:32:44.459Z,99763.41
2019-04-28T04:35:17.500Z,99764.51
2019-04-28T04:37:50.502Z,99766.21
2019-04-28T04:40:23.774Z,99767.90
2019-04-28T04:42:57.587Z,99759.53
2019-04-28T04:45:31.104Z,99766.73
2019-04-28T04:48:05.375Z,99766.04
2019-04-28T04:50:41.185Z,99771.22
2019-04-28T04:53:14.765Z,99785.61
2019-04-28T04:55:50.719Z,99782.79
2019-04-28T04:58:23.594Z,99784.92
2019-04-28T05:01:16.123Z,99789.19
2019-04-28T05:03:51.276Z,99786.67
2019-04-28T05:06:33.404Z,99793.58
2019-04-28T05:09:09.988Z,99797.28
2019-04-28T05:11:43.853Z,99794.32
2019-04-28T05:14:17.330Z,99796.77
2019-04-28T05:16:51.082Z,99792.04
2019-04-28T05:19:26.719Z,99799.72
2019-04-28T05:22:00.125Z,99801.72
2019-04-28T05:24:46.349Z,99803.25
2019-04-28T05:27:22.161Z,99815.23
2019-04-28T05:29:56.864Z,99807.09
2019-04-28T05:32:42.483Z,99807.20
2019-04-28T05:35:10.244Z,99813.15
2019-04-28T05:37:43.909Z,99811.16
2019-04-28T05:40:17.418Z,99816.69
2019-04-28T05:43:00.863Z,99829.84
2019-04-28T05:45:34.863Z,99828.92
2019-04-28T05:48:09.533Z,99838.92
2019-04-28T05:50:54.252Z,99831.63
2019-04-28T05:53:43.491Z,99840.36
2019-04-28T05:56:30.778Z,99841.55
2019-04-28T05:59:10.592Z,99842.10
2019-04-28T06:02:00.631Z,99851.23
2019-04-28T06:04:34.416Z,99848.77
2019-04-28T06:07:36.156Z,99853.80
2019-04-28T06:10:10.502Z,99850.87
2019-04-28T06:12:43.352Z,99856.58
2019-04-28T06:15:16.803Z,99856.70
2019-04-28T06:17:50.357Z,99860.69
2019-04-28T06:20:23.683Z,99860.36
2019-04-28T06:22:57.047Z,99855.85
2019-04-28T06:25:31.392Z,99862.08
2019-04-28T06:28:05.057Z,99866.71
2019-04-28T06:30:38.365Z,99868.02
2019-04-28T06:33:11.479Z,99873.06
2019-04-28T06:35:44.858Z,99876.95
2019-04-28T06:38:18.255Z,99877.33
2019-04-28T06:40:51.159Z,99884.75
2019-04-28T06:43:24.134Z,99878.98
2019-04-28T06:45:56.594Z,99885.46
2019-04-28T06:48:30.102Z,99888.83
2019-04-28T06:51:03.310Z,99896.91
2019-04-28T06:53:37.146Z,99894.20
2019-04-28T06:56:10.739Z,99894.41
2019-04-28T06:58:43.836Z,99894.00
2019-04-28T07:01:17.495Z,99895.97
2019-04-28T07:03:51.107Z,99893.84
2019-04-28T07:06:24.512Z,99898.81
2019-04-28T07:08:57.897Z,99897.22
2019-04-28T07:11:30.941Z,99898.06
2019-04-28T07:14:06.041Z,99892.55
2019-04-28T07:16:39.629Z,99901.27
2019-04-28T07:19:13.012Z,99896.90
2019-04-28T07:21:54.924Z,99898.22
2019-04-28T07:24:27.889Z,99900.96
2019-04-28T07:27:00.904Z,99902.53
2019-04-28T07:29:34.410Z,99895.11
2019-04-28T07:32:08.799Z,99898.55
2019-04-28T07:34:42.456Z,99907.27
2019-04-28T07:37:15.490Z,99907.88
2019-04-28T07:39:48.840Z,99906.02
2019-04-28T07:42:22.403Z,99905.09
2019-04-28T07:44:56.020Z,99909.17
2019-04-28T07:47:29.625Z,99912.14
2019-04-28T07:50:02.958Z,99918.70
2019-04-28T07:52:43.560Z,99923.34
2019-04-28T07:55:16.688Z,99923.63
2019-04-28T07:57:50.150Z,99926.41
2019-04-28T08:00:27.970Z,99927.77
2019-04-28T08:03:01.879Z,99929.88
2019-04-28T08:05:34.967Z,99936.12
2019-04-28T08:08:08.456Z,99938.42
2019-04-28T08:10:41.794Z,99936.47
2019-04-28T08:13:14.937Z,99938.25
2019-04-28T08:15:48.541Z,99940.34
2019-04-28T08:18:22.370Z,99942.70
2019-04-28T08:20:55.689Z,99944.98
2019-04-28T08:23:29.469Z,99950.36
2019-04-28T08:26:02.569Z,99947.30
2019-04-28T08:28:35.249Z,99951.92
2019-04-28T08:31:10.956Z,99949.91
2019-04-28T08:34:02.191Z,99955.50
2019-04-28T08:36:29.226Z,99953.31
2019-04-28T08:39:04.361Z,99956.83
2019-04-28T08:41:39.315Z,99968.28
2019-04-28T08:44:13.022Z,99964.94
2019-04-28T08:46:46.112Z,99965.94
2019-04-28T08:49:19.817Z,99965.97
2019-04-28T08:51:52.904Z,99968.22
2019-04-28T08:54:26.388Z,99965.43
2019-04-28T08:56:59.154Z,99960.19
2019-04-28T08:59:32.589Z,99960.33
2019-04-28T09:02:07.109Z,99968.98
2019-04-28T09:04:40.693Z,99964.89
2019-04-28T09:07:13.799Z,99969.45
2019-04-28T09:09:48.332Z,99971.91
2019-04-28T09:12:21.748Z,99975.25
2019-04-28T09:14:55.024Z,99984.37
2019-04-28T09:17:28.096Z,99985.11
2019-04-28T09:20:01.167Z,99984.44
2019-04-28T09:22:33.881Z,99979.51
2019-04-28T09:25:07.730Z,99984.28
2019-04-28T09:27:41.505Z,99987.58
2019-04-28T09:30:15.286Z,99992.97
2019-04-28T09:32:48.724Z,99990.92
2019-04-28T09:35:22.389Z,99991.29
2019-04-28T09:37:55.521Z,99992.73
2019-04-28T09:40:30.568Z,100000.72
2019-04-28T09:43:31.782Z,99987.63
2019-04-28T09:46:09.592Z,99989.69
2019-04-28T09:48:42.825Z,99991.95
2019-04-28T09:51:15.828Z,99993.68
2019-04-28T09:53:48.865Z,99992.14
2019-04-28T09:56:21.826Z,99999.56
2019-04-28T09:58:55.239Z,99994.53
2019-04-28T10:01:28.339Z,99999.36
2019-04-28T10:04:02.323Z,99999.20
2019-04-28T10:06:35.784Z,100006.25
2019-04-28T10:09:09.320Z,100013.31
2019-04-28T10:11:51.348Z,100019.59
2019-04-28T10:14:25.464Z,100020.35
2019-04-28T10:16:58.432Z,100017.91
2019-04-28T10:19:33.555Z,100008.56
2019-04-28T10:22:06.534Z,100008.39
2019-04-28T10:24:39.359Z,100009.92
2019-04-28T10:27:12.711Z,100021.72
2019-04-28T10:29:46.758Z,100018.41
2019-04-28T10:32:20.333Z,100014.05
2019-04-28T10:34:54.957Z,100019.87
2019-04-28T10:37:28.432Z,100020.63
2019-04-28T10:40:06.636Z,100019.34
2019-04-28T10:42:39.456Z,100018.91
2019-04-28T10:45:15.477Z,100026.84
2019-04-28T10:47:51.011Z,100025.95
2019-04-28T10:50:27.398Z,100034.72
2019-04-28T10:53:00.427Z,100040.55
2019-04-28T10:55:34.849Z,100057.98
2019-04-28T10:58:09.580Z,100072.28
2019-04-28T11:00:43.411Z,100067.51
2019-04-28T11:03:16.861Z,100068.73
2019-04-28T11:05:50.170Z,100075.39
2019-04-28T11:08:31.800Z,100072.47
2019-04-28T11:11:11.392Z,100069.44
2019-04-28T11:13:45.421Z,100076.08
2019-04-28T11:16:21.726Z,100073.72
2019-04-28T11:18:55.646Z,100073.05
2019-04-28T11:21:28.791Z,100071.22
2019-04-28T11:24:02.392Z,100067.72
2019-04-28T11:26:36.355Z,100069.81
2019-04-28T11:29:10.114Z,100070.94
2019-04-28T11:31:42.406Z,100069.05
2019-04-28T11:34:21.856Z,100070.05
2019-04-28T11:36:55.648Z,100061.39
2019-04-28T11:39:31.665Z,100057.86
2019-04-28T11:42:05.064Z,100054.72
2019-04-28T11:44:38.163Z,100040.84
2019-04-28T11:47:14.620Z,100037.41
2019-04-28T11:49:48.410Z,100033.48
2019-04-28T11:52:21.129Z,100038.09
2019-04-28T18:37:46.608Z,100268.16
2019-04-28T18:40:42.849Z,100284.13
2019-04-28T18:43:47.545Z,100281.64
2019-04-28T18:46:27.458Z,100284.95
2019-04-28T18:49:00.715Z,100285.39
2019-04-28T18:56:06.708Z,100302.56
2019-04-28T18:58:48.890Z,100304.87
2019-04-28T19:01:55.206Z,100305.69
2019-04-28T19:04:29.757Z,100311.42
2019-04-28T21:13:08.406Z,100411.27
2019-04-28T21:15:43.129Z,100407.91
2019-04-28T21:18:16.280Z,100414.02
2019-04-28T21:20:49.214Z,100420.70
2019-04-28T21:23:23.200Z,100416.52
2019-04-28T21:25:56.396Z,100419.09
2019-04-28T21:28:30.288Z,100419.94
2019-04-28T21:31:03.514Z,100421.84
2019-04-28T21:33:37.014Z,100417.42
2019-04-28T21:36:11.281Z,100416.87
2019-04-28T21:38:47.687Z,100422.83
2019-04-28T21:41:21.681Z,100422.08
2019-04-28T21:44:17.237Z,100426.34
2019-04-28T21:46:55.230Z,100424.69
2019-04-28T21:49:30.102Z,100435.02
2019-04-28T21:52:03.220Z,100433.61
2019-04-28T21:54:36.156Z,100431.61
2019-04-28T21:57:08.976Z,100429.72
2019-04-28T21:59:42.936Z,100432.94
2019-04-28T22:02:15.682Z,100443.89
2019-04-28T22:04:48.128Z,100438.34
2019-04-28T22:07:22.796Z,100442.16
2019-04-28T22:09:56.326Z,100440.01
2019-04-28T22:12:29.611Z,100446.27
2019-04-28T22:15:03.131Z,100449.28
2019-04-28T22:17:36.620Z,100448.33
2019-04-28T22:20:10.464Z,100453.23
2019-04-28T22:22:43.609Z,100459.33
2019-04-28T22:25:19.584Z,100458.67
2019-04-28T22:27:51.882Z,100457.33
2019-04-28T22:30:25.012Z,100453.28
2019-04-28T22:32:57.729Z,100456.44
2019-04-28T22:35:30.838Z,100454.63
2019-04-28T22:38:03.472Z,100454.05
2019-04-28T22:40:36.078Z,100461.59
2019-04-28T22:43:09.494Z,100462.31
2019-04-28T22:45:43.551Z,100458.04
2019-04-28T22:48:20.866Z,100467.22
2019-04-28T22:50:53.830Z,100462.84
2019-04-28T22:53:32.899Z,100465.86
2019-04-28T22:56:25.638Z,100461.48
2019-04-28T22:59:05.463Z,100465.38
2019-04-28T23:01:41.623Z,100470.55
2019-04-28T23:04:32.933Z,100469.05
2019-04-28T23:07:06.529Z,100475.28
2019-04-28T23:09:40.050Z,100471.31
2019-04-28T23:12:13.202Z,100476.09
2019-04-28T23:14:47.016Z,100476.48
2019-04-28T23:17:21.275Z,100479.66
2019-04-28T23:19:54.990Z,100484.57
2019-04-28T23:22:46.649Z,100474.75
2019-04-28T23:25:12.334Z,100487.75
2019-04-28T23:27:45.311Z,100479.98
2019-04-28T23:30:38.283Z,100480.84
2019-04-28T23:33:11.136Z,100481.56
2019-04-28T23:35:44.641Z,100489.04
2019-04-28T23:38:17.699Z,100482.78
2019-04-28T23:41:02.784Z,100483.00
2019-04-28T23:43:36.084Z,100484.57
2019-04-28T23:46:09.082Z,100489.72
2019-04-28T23:48:42.457Z,100490.70
2019-04-28T23:51:24.063Z,100488.43
2019-04-28T23:54:00.141Z,100485.86
2019-04-28T23:56:33.450Z,100485.00
2019-04-28T23:59:05.755Z,100490.02
